createdAt,value
2019-01-05T00:00:59.489Z,16.00
2019-01-05T00:03:30.071Z,17.63
2019-01-05T00:06:00.330Z,18.80
2019-01-05T00:08:42.746Z,17.63
2019-01-05T00:11:29.488Z,17.47
2019-01-05T00:14:02.716Z,16.37
2019-01-05T00:16:39.359Z,18.07
2019-01-05T00:19:26.405Z,17.73
2019-01-05T00:22:06.059Z,15.07
2019-01-05T00:24:52.883Z,20.87
2019-01-05T00:27:38.409Z,18.70
2019-01-05T00:30:09.918Z,16.53
2019-01-05T00:32:40.377Z,16.93
2019-01-05T00:35:19.285Z,20.30
2019-01-05T00:38:06.291Z,19.33
2019-01-05T00:40:43.185Z,19.23
2019-01-05T00:43:17.742Z,16.33
2019-01-05T00:45:55.113Z,16.57
2019-01-05T00:48:43.345Z,16.03
2019-01-05T00:51:28.623Z,19.80
2019-01-05T00:54:05.421Z,16.30
2019-01-05T00:56:42.638Z,15.73
2019-01-05T00:59:22.493Z,15.60
2019-01-05T01:01:55.649Z,18.00
2019-01-05T01:04:41.080Z,21.30
2019-01-05T01:07:20.637Z,19.00
2019-01-05T01:09:50.889Z,28.87
2019-01-05T01:12:30.621Z,31.80
2019-01-05T01:15:17.497Z,35.90
2019-01-05T01:17:57.322Z,34.00
2019-01-05T01:20:39.899Z,28.97
2019-01-05T01:23:11.001Z,37.53
2019-01-05T01:25:56.386Z,33.53
2019-01-05T01:28:27.513Z,27.27
2019-01-05T01:30:57.781Z,23.57
2019-01-05T01:33:31.056Z,21.13
2019-01-05T01:36:13.728Z,18.87
2019-01-05T01:39:14.117Z,31.73
2019-01-05T01:41:44.757Z,30.03
2019-01-05T01:44:23.899Z,33.57
2019-01-05T01:47:00.022Z,32.00
2019-01-05T01:49:44.390Z,30.20
2019-01-05T01:52:15.173Z,25.27
2019-01-05T01:54:57.405Z,23.60
2019-01-05T01:57:29.133Z,26.47
2019-01-05T02:00:02.295Z,29.27
2019-01-05T02:02:49.904Z,27.17
2019-01-05T02:05:38.175Z,22.80
2019-01-05T02:08:13.820Z,21.43
2019-01-05T02:11:03.311Z,24.83
2019-01-05T02:13:45.445Z,21.17
2019-01-05T02:16:33.268Z,22.90
2019-01-05T02:19:15.660Z,24.43
2019-01-05T02:22:14.440Z,22.47
2019-01-05T02:25:35.926Z,22.97
2019-01-05T02:28:25.479Z,19.97
2019-01-05T02:31:19.544Z,22.07
2019-01-05T02:34:13.342Z,23.97
2019-01-05T02:36:49.446Z,21.50
2019-01-05T02:39:50.969Z,23.93
2019-01-05T02:42:39.042Z,21.47
2019-01-05T02:45:17.889Z,21.87
2019-01-05T02:47:59.684Z,24.87
2019-01-05T02:51:01.521Z,23.97
2019-01-05T02:54:00.337Z,24.03
2019-01-05T02:57:15.384Z,20.77
2019-01-05T03:00:06.384Z,22.63
2019-01-05T03:02:48.683Z,22.63
2019-01-05T03:05:30.815Z,22.57
2019-01-05T03:08:37.423Z,23.60
2019-01-05T03:11:19.330Z,26.37
2019-01-05T03:14:19.632Z,26.00
2019-01-05T03:17:29.102Z,24.40
2019-01-05T03:20:21.871Z,25.80
2019-01-05T03:23:16.664Z,28.13
2019-01-05T03:26:30.893Z,28.13
2019-01-05T03:29:07.154Z,28.87
2019-01-05T03:31:55.063Z,26.90
2019-01-05T03:34:56.775Z,27.17
2019-01-05T03:37:59.946Z,39.13
2019-01-05T03:40:55.757Z,48.20
2019-01-05T03:43:51.247Z,41.70
2019-01-05T03:47:17.334Z,42.63
2019-01-05T03:50:14.447Z,41.10
2019-01-05T03:52:47.767Z,39.03
2019-01-05T03:55:41.363Z,36.27
2019-01-05T03:58:29.327Z,37.47
2019-01-05T04:01:33.942Z,39.40
2019-01-05T04:04:26.742Z,36.83
2019-01-05T04:07:23.897Z,63.97
2019-01-05T04:10:24.282Z,85.77
2019-01-05T04:13:35.358Z,116.63
2019-01-05T04:16:23.169Z,112.60
2019-01-05T04:19:17.445Z,139.07
2019-01-05T04:22:14.830Z,118.70
2019-01-05T04:25:05.736Z,86.37
2019-01-05T04:27:50.865Z,114.77
2019-01-05T04:30:57.313Z,86.23
2019-01-05T04:34:03.578Z,74.33
2019-01-05T04:37:00.865Z,146.20
2019-01-05T04:39:56.449Z,156.47
2019-01-05T04:42:50.518Z,134.70
2019-01-05T04:46:07.071Z,105.77
2019-01-05T04:49:22.479Z,74.23
2019-01-05T04:52:22.823Z,61.97
2019-01-05T04:55:21.086Z,60.23
2019-01-05T04:58:27.345Z,71.87
2019-01-05T05:01:45.936Z,60.90
2019-01-05T05:04:35.364Z,49.87
2019-01-05T05:07:27.688Z,59.77
2019-01-05T05:10:35.851Z,50.63
2019-01-05T05:13:48.022Z,36.77
2019-01-05T05:16:43.787Z,26.37
2019-01-05T05:19:31.807Z,32.30
2019-01-05T05:22:27.542Z,27.93
2019-01-05T05:25:16.971Z,27.03
2019-01-05T05:28:11.118Z,22.77
2019-01-05T05:31:09.835Z,25.93
2019-01-05T05:34:11.840Z,26.93
2019-01-05T05:37:21.460Z,29.50
2019-01-05T05:40:25.053Z,31.80
2019-01-05T05:43:29.707Z,49.73
2019-01-05T05:46:12.007Z,65.83
2019-01-05T05:49:07.953Z,102.73
2019-01-05T05:52:23.486Z,144.00
2019-01-05T05:55:16.133Z,100.63
2019-01-05T05:58:22.453Z,91.17
2019-01-05T06:01:10.389Z,93.83
2019-01-05T06:04:14.920Z,64.07
2019-01-05T06:07:04.296Z,72.80
2019-01-05T06:10:12.168Z,52.47
2019-01-05T06:13:15.620Z,65.50
2019-01-05T06:16:03.689Z,63.57
2019-01-05T06:19:21.138Z,51.13
2019-01-05T06:22:23.133Z,64.33
2019-01-05T06:25:27.931Z,96.13
2019-01-05T06:28:29.691Z,111.97
2019-01-05T06:31:23.581Z,113.53
2019-01-05T06:34:08.793Z,106.10
2019-01-05T06:37:01.416Z,96.30
2019-01-05T06:40:17.998Z,131.30
2019-01-05T06:43:10.873Z,102.17
2019-01-05T06:46:05.288Z,88.83
2019-01-05T06:49:27.042Z,61.53
2019-01-05T06:52:22.804Z,46.47
2019-01-05T06:55:16.924Z,54.07
2019-01-05T06:58:15.773Z,63.07
2019-01-05T07:01:12.926Z,42.30
2019-01-05T07:03:57.860Z,52.23
2019-01-05T07:06:52.670Z,65.00
2019-01-05T07:09:48.957Z,59.20
2019-01-05T07:12:33.703Z,56.27
2019-01-05T07:15:39.432Z,189.90
2019-01-05T07:18:54.745Z,89.03
2019-01-05T07:21:56.615Z,165.67
2019-01-05T07:25:06.121Z,95.17
2019-01-05T07:28:22.205Z,64.20
2019-01-05T07:31:23.694Z,79.60
2019-01-05T07:34:26.206Z,54.73
2019-01-05T07:37:32.412Z,40.83
2019-01-05T07:40:20.015Z,41.17
2019-01-05T07:43:11.078Z,63.20
2019-01-05T07:46:08.017Z,59.23
2019-01-05T07:49:10.046Z,56.30
2019-01-05T07:52:32.700Z,31.73
2019-01-05T07:55:37.603Z,52.10
2019-01-05T07:58:32.040Z,52.77
2019-01-05T08:01:32.470Z,48.87
2019-01-05T08:04:52.454Z,56.80
2019-01-05T08:07:54.185Z,39.20
2019-01-05T08:10:51.591Z,74.07
2019-01-05T08:13:42.522Z,50.00
2019-01-05T08:16:34.986Z,40.80
2019-01-05T08:19:31.861Z,35.87
2019-01-05T08:22:36.703Z,52.27
2019-01-05T08:25:34.047Z,35.77
2019-01-05T08:28:38.155Z,33.20
2019-01-05T08:31:54.736Z,35.60
2019-01-05T08:34:30.691Z,35.23
2019-01-05T08:37:36.538Z,37.63
2019-01-05T08:40:50.863Z,28.73
2019-01-05T08:44:13.763Z,30.60
2019-01-05T08:47:26.771Z,20.70
2019-01-05T08:50:16.240Z,21.00
2019-01-05T08:53:09.278Z,21.30
2019-01-05T08:56:03.410Z,25.67
2019-01-05T08:59:13.056Z,27.53
2019-01-05T09:02:08.853Z,25.47
2019-01-05T09:05:10.105Z,27.90
2019-01-05T09:08:23.777Z,21.40
2019-01-05T09:11:17.791Z,23.77
2019-01-05T09:14:29.538Z,18.83
2019-01-05T09:17:38.748Z,20.67
2019-01-05T09:20:37.009Z,21.40
2019-01-05T09:23:24.881Z,20.67
2019-01-05T09:26:26.746Z,22.03
2019-01-05T09:29:22.538Z,28.50
2019-01-05T09:32:31.797Z,28.77
2019-01-05T09:35:32.364Z,38.90
2019-01-05T09:38:13.575Z,36.00
2019-01-05T09:41:09.256Z,39.60
2019-01-05T09:44:18.645Z,43.23
2019-01-05T09:47:32.276Z,34.33
2019-01-05T09:50:23.515Z,55.50
2019-01-05T09:53:34.484Z,36.57
2019-01-05T09:56:13.263Z,29.77
2019-01-05T09:59:19.864Z,45.33
2019-01-05T10:02:26.432Z,32.70
2019-01-05T10:05:11.620Z,56.37
2019-01-05T10:08:11.850Z,42.20
2019-01-05T10:11:03.022Z,29.40
2019-01-05T10:14:14.186Z,40.17
2019-01-05T10:17:08.406Z,26.40
2019-01-05T10:20:16.444Z,22.60
2019-01-05T10:22:58.422Z,24.37
2019-01-05T10:25:51.456Z,22.87
2019-01-05T10:28:51.384Z,34.80
2019-01-05T10:31:45.303Z,32.47
2019-01-05T10:34:30.254Z,26.47
2019-01-05T10:37:36.899Z,41.67
2019-01-05T10:40:18.997Z,43.73
2019-01-05T10:43:00.769Z,29.30
2019-01-05T10:46:10.565Z,28.77
2019-01-05T10:48:49.225Z,43.37
2019-01-05T10:51:41.249Z,25.37
2019-01-05T10:54:42.969Z,19.83
2019-01-05T10:57:51.457Z,28.20
2019-01-05T11:00:34.023Z,39.70
2019-01-05T11:03:25.444Z,22.80
2019-01-05T11:06:07.988Z,36.30
2019-01-05T11:08:57.813Z,43.73
2019-01-05T11:11:57.376Z,28.20
2019-01-05T11:15:04.936Z,20.83
2019-01-05T11:18:01.745Z,28.23
2019-01-05T11:21:00.129Z,28.30
2019-01-05T11:23:58.927Z,18.80
2019-01-05T11:26:49.952Z,11.53
2019-01-05T11:29:34.846Z,17.87
2019-01-05T11:32:35.149Z,17.03
2019-01-05T11:35:29.866Z,26.80
2019-01-05T11:38:36.435Z,16.37
2019-01-05T11:41:54.636Z,12.27
2019-01-05T11:45:07.238Z,22.37
2019-01-05T11:47:55.666Z,20.97
2019-01-05T11:51:09.440Z,16.57
2019-01-05T11:54:33.672Z,18.27
2019-01-05T11:57:42.754Z,17.20
2019-01-05T12:00:36.914Z,18.87
2019-01-05T12:04:01.829Z,18.70
2019-01-05T12:07:08.322Z,20.93
2019-01-05T12:10:02.148Z,13.87
2019-01-05T12:13:00.257Z,19.83
2019-01-05T12:16:20.721Z,22.90
2019-01-05T12:19:36.331Z,21.77
2019-01-05T12:22:30.271Z,69.73
2019-01-05T12:25:20.106Z,31.23
2019-01-05T12:28:11.463Z,38.17
2019-01-05T12:31:14.533Z,25.03
2019-01-05T12:34:12.959Z,24.10
2019-01-05T12:37:00.845Z,30.13
2019-01-05T12:39:52.833Z,33.80
2019-01-05T12:43:14.123Z,25.63
2019-01-05T12:46:09.614Z,22.43
2019-01-05T12:49:26.093Z,30.70
2019-01-05T12:52:08.533Z,38.47
2019-01-05T12:55:29.505Z,49.73
2019-01-05T12:58:22.290Z,42.83
2019-01-05T13:01:28.664Z,38.93
2019-01-05T13:04:14.202Z,21.63
2019-01-05T13:07:34.366Z,37.13
2019-01-05T13:10:25.773Z,30.90
2019-01-05T13:13:25.863Z,29.00
2019-01-05T13:16:40.861Z,39.53
2019-01-05T13:19:42.814Z,46.73
2019-01-05T13:22:28.366Z,34.90
2019-01-05T13:25:16.306Z,42.87
2019-01-05T13:28:13.365Z,85.87
2019-01-05T13:31:21.167Z,129.27
2019-01-05T13:34:24.707Z,74.93
2019-01-05T13:37:23.327Z,89.33
2019-01-05T13:40:11.581Z,110.03
2019-01-05T13:46:41.442Z,87.37
2019-01-05T13:49:52.288Z,163.70
2019-01-05T13:52:55.618Z,162.13
2019-01-05T13:55:55.751Z,119.43
2019-01-05T13:58:42.024Z,146.37
2019-01-05T14:01:24.065Z,89.37
2019-01-05T14:03:54.459Z,127.53
2019-01-05T14:06:24.713Z,86.77
2019-01-05T14:08:57.985Z,121.70
2019-01-05T14:11:28.361Z,160.83
2019-01-05T14:14:10.679Z,222.00
2019-01-05T14:16:47.109Z,198.13
2019-01-05T14:19:23.381Z,194.70
2019-01-05T14:22:02.804Z,153.63
2019-01-05T14:24:49.535Z,151.97
2019-01-05T14:27:37.911Z,166.03
2019-01-05T14:30:13.031Z,135.87
2019-01-05T14:32:59.893Z,194.70
2019-01-05T14:35:33.313Z,210.43
2019-01-05T14:38:06.707Z,225.87
2019-01-05T14:40:49.189Z,165.03
2019-01-05T14:43:25.676Z,156.40
2019-01-05T14:46:02.198Z,164.23
2019-01-05T14:48:49.149Z,141.23
2019-01-05T14:51:34.679Z,154.93
2019-01-05T14:54:05.101Z,176.73
2019-01-05T14:56:51.552Z,194.03
2019-01-05T14:59:38.378Z,163.83
2019-01-05T15:02:27.017Z,142.80
2019-01-05T15:05:13.870Z,79.17
2019-01-05T15:07:44.145Z,84.60
2019-01-05T15:10:14.488Z,90.70
2019-01-05T15:12:44.906Z,93.30
2019-01-05T15:15:17.975Z,61.87
2019-01-05T15:17:54.469Z,57.93
2019-01-05T15:20:30.500Z,50.13
2019-01-05T15:23:01.593Z,44.90
2019-01-05T15:25:47.116Z,34.00
2019-01-05T15:28:29.782Z,32.73
2019-01-05T15:31:16.600Z,35.83
2019-01-05T15:33:50.007Z,29.57
2019-01-05T15:36:35.518Z,31.50
2019-01-05T15:39:23.899Z,36.83
2019-01-05T15:41:54.151Z,32.93
2019-01-05T15:44:36.808Z,29.13
2019-01-05T15:47:07.070Z,27.00
2019-01-05T15:49:49.725Z,23.53
2019-01-05T15:52:25.989Z,25.17
2019-01-05T15:55:12.982Z,27.77
2019-01-05T15:57:52.219Z,30.67
2019-01-05T16:00:22.522Z,48.83
2019-01-05T16:03:09.013Z,32.53
2019-01-05T16:05:42.341Z,29.53
2019-01-05T16:08:30.775Z,34.20
2019-01-05T16:11:06.998Z,30.57
2019-01-05T16:13:39.981Z,41.37
2019-01-05T16:16:19.178Z,31.40
2019-01-05T16:19:04.714Z,29.97
2019-01-05T16:22:00.212Z,26.87
2019-01-05T16:24:33.469Z,29.93
2019-01-05T16:27:03.723Z,26.83
2019-01-05T16:29:34.308Z,29.77
2019-01-05T16:32:20.693Z,31.77
2019-01-05T16:34:56.560Z,33.20
2019-01-05T16:37:26.847Z,35.97
2019-01-05T16:40:06.108Z,35.47
2019-01-05T16:42:42.553Z,37.33
2019-01-05T16:45:22.040Z,47.30
2019-01-05T16:48:04.414Z,48.97
2019-01-05T16:50:51.502Z,55.30
2019-01-05T16:53:21.756Z,49.63
2019-01-05T16:56:10.919Z,49.70
2019-01-05T16:58:57.227Z,45.23
2019-01-05T17:01:43.831Z,50.33
2019-01-05T17:04:23.154Z,46.77
2019-01-05T17:07:05.811Z,41.00
2019-01-05T17:09:36.082Z,52.53
2019-01-05T17:12:29.001Z,59.70
2019-01-05T17:15:05.959Z,58.30
2019-01-05T17:17:48.607Z,70.43
2019-01-05T17:20:24.720Z,57.73
2019-01-05T17:23:01.835Z,61.20
2019-01-05T17:25:34.928Z,62.47
2019-01-05T17:28:11.639Z,69.10
2019-01-05T17:30:59.934Z,62.33
2019-01-05T17:33:33.258Z,71.43
2019-01-05T17:36:19.736Z,70.53
2019-01-05T17:39:07.077Z,67.30
2019-01-05T17:41:41.449Z,67.37
2019-01-05T17:44:12.029Z,76.27
2019-01-05T17:46:51.032Z,64.33
2019-01-05T17:49:24.132Z,67.77
2019-01-05T17:52:03.466Z,70.90
2019-01-05T17:54:50.453Z,61.33
2019-01-05T17:57:37.174Z,70.37
2019-01-05T18:00:12.433Z,71.67
2019-01-05T18:02:58.871Z,80.80
2019-01-05T18:05:29.167Z,92.70
2019-01-05T18:08:11.622Z,138.27
2019-01-05T18:10:47.929Z,178.97
2019-01-05T18:13:26.968Z,214.97
2019-01-05T18:16:10.123Z,245.93
2019-01-05T18:18:56.912Z,260.47
2019-01-05T18:21:32.199Z,209.50
2019-01-05T18:24:18.187Z,229.30
2019-01-05T18:26:48.549Z,217.90
2019-01-05T18:29:24.994Z,223.70
2019-01-05T18:32:01.301Z,313.20
2019-01-05T18:34:37.795Z,429.27
2019-01-05T18:37:20.470Z,375.37
2019-01-05T18:39:53.691Z,381.07
2019-01-05T18:42:40.881Z,354.07
2019-01-05T18:45:26.583Z,364.93
2019-01-05T18:47:56.912Z,362.20
2019-01-05T18:50:27.146Z,333.93
2019-01-05T18:53:03.213Z,312.63
2019-01-05T18:55:58.797Z,301.70
2019-01-05T18:58:32.863Z,349.30
2019-01-05T19:01:08.818Z,333.57
2019-01-05T19:03:41.069Z,410.83
2019-01-05T19:06:14.301Z,429.20
2019-01-05T19:08:55.856Z,437.37
2019-01-05T19:11:29.050Z,492.63
2019-01-05T19:14:09.602Z,496.17
2019-01-05T19:16:39.861Z,498.77
2019-01-05T19:19:26.827Z,483.83
2019-01-05T19:22:00.238Z,475.93
2019-01-05T19:24:40.052Z,408.63
2019-01-05T19:27:22.351Z,400.83
2019-01-05T19:30:08.864Z,440.00
2019-01-05T19:32:54.124Z,427.70
2019-01-05T19:35:30.528Z,410.30
2019-01-05T19:38:06.528Z,434.37
2019-01-05T19:40:59.026Z,405.33
2019-01-05T19:43:40.694Z,267.90
2019-01-05T19:46:12.335Z,267.17
2019-01-05T19:48:51.541Z,304.30
2019-01-05T19:51:31.312Z,304.83
2019-01-05T19:54:01.578Z,301.37
2019-01-05T19:56:31.834Z,276.23
2019-01-05T19:59:04.894Z,373.37
2019-01-05T20:01:51.527Z,306.93
2019-01-05T20:04:31.019Z,359.67
2019-01-05T20:07:17.802Z,213.27
2019-01-05T20:09:48.197Z,85.30
2019-01-05T20:12:18.468Z,162.83
2019-01-05T20:14:54.823Z,106.47
2019-01-05T20:17:28.016Z,49.27
2019-01-05T20:20:04.243Z,31.70
2019-01-05T20:22:50.907Z,30.27
2019-01-05T20:25:27.358Z,36.03
2019-01-05T20:28:15.850Z,307.50
2019-01-05T20:30:46.219Z,240.60
2019-01-05T20:33:32.476Z,223.47
2019-01-05T20:36:21.433Z,250.17
2019-01-05T20:39:07.819Z,121.47
2019-01-05T20:41:38.111Z,69.80
2019-01-05T20:44:23.677Z,80.53
2019-01-05T20:47:12.533Z,70.53
2019-01-05T20:49:51.796Z,62.73
2019-01-05T20:52:38.702Z,59.13
2019-01-05T20:55:25.326Z,50.63
2019-01-05T20:58:11.887Z,51.37
2019-01-05T21:00:57.137Z,55.00
2019-01-05T21:03:27.534Z,63.47
2019-01-05T21:06:06.792Z,81.83
2019-01-05T21:08:39.868Z,261.87
2019-01-05T21:11:10.134Z,425.90
2019-01-05T21:13:49.535Z,338.13
2019-01-05T21:16:22.763Z,174.63
2019-01-05T21:18:59.563Z,214.87
2019-01-05T21:21:40.539Z,156.87
2019-01-05T21:24:15.206Z,203.97
2019-01-05T21:27:01.685Z,165.20
2019-01-05T21:29:54.934Z,179.73
2019-01-05T21:32:34.295Z,106.50
2019-01-05T21:35:17.121Z,61.23
2019-01-05T21:37:53.385Z,72.17
2019-01-05T21:40:40.719Z,72.57
2019-01-05T21:43:10.967Z,95.03
2019-01-05T21:45:44.114Z,129.43
2019-01-05T21:48:14.647Z,100.60
2019-01-05T21:50:57.130Z,85.33
2019-01-05T21:53:27.562Z,83.27
2019-01-05T21:56:03.874Z,81.07
2019-01-05T21:58:50.581Z,188.13
2019-01-05T22:01:35.820Z,276.73
2019-01-05T22:04:24.201Z,201.00
2019-01-05T22:06:54.456Z,160.97
2019-01-05T22:09:41.400Z,167.20
2019-01-05T22:12:11.650Z,97.17
2019-01-05T22:14:41.921Z,68.10
2019-01-05T22:17:21.512Z,50.57
2019-01-05T22:20:09.876Z,40.00
2019-01-05T22:22:49.555Z,43.83
2019-01-05T22:25:19.813Z,41.00
2019-01-05T22:27:50.073Z,37.70
2019-01-05T22:30:23.525Z,41.77
2019-01-05T22:32:53.785Z,39.37
2019-01-05T22:35:30.720Z,45.47
2019-01-05T22:38:06.967Z,49.03
2019-01-05T22:40:49.719Z,55.73
2019-01-05T22:43:36.152Z,39.30
2019-01-05T22:46:18.786Z,55.07
2019-01-05T22:49:05.411Z,85.83
2019-01-05T22:51:36.062Z,59.47
2019-01-05T22:54:06.327Z,71.57
2019-01-05T22:56:45.635Z,57.40
2019-01-05T22:59:21.692Z,61.57
2019-01-05T23:01:55.022Z,82.73
2019-01-05T23:04:41.365Z,85.40
2019-01-05T23:07:17.648Z,73.23
2019-01-05T23:10:06.081Z,84.80
2019-01-05T23:12:53.025Z,58.80
2019-01-05T23:15:26.262Z,78.37
2019-01-05T23:17:59.612Z,81.37
2019-01-05T23:20:46.448Z,92.17
2019-01-05T23:23:22.614Z,58.63
2019-01-05T23:26:11.224Z,95.47
2019-01-05T23:28:41.610Z,75.97
2019-01-05T23:31:11.869Z,98.93
2019-01-05T23:33:42.163Z,60.53
2019-01-05T23:36:12.419Z,62.63
2019-01-05T23:38:50.334Z,55.47
2019-01-05T23:41:27.003Z,61.37
2019-01-05T23:44:04.575Z,45.83
2019-01-05T23:46:34.826Z,42.63
2019-01-05T23:49:05.220Z,46.17
2019-01-05T23:51:35.473Z,51.60
2019-01-05T23:54:05.722Z,72.60
2019-01-05T23:56:36.056Z,47.03
2019-01-05T23:59:06.306Z,50.00
